sensor_id;sensor_type;location;lat;lon;timestamp;pressure;altitude;pressure_sealevel;temperature;humidity
11041;BME280;5573;49.592;8.662;2023-02-14T00:02:28;101795.41;;;2.15;100.00
11041;BME280;5573;49.592;8.662;2023-02-14T00:04:56;101789.41;;;2.18;100.00
11041;BME280;5573;49.592;8.662;2023-02-14T00:07:23;101791.91;;;2.10;100.00
11041;BME280;5573;49.592;8.662;2023-02-14T00:09:51;101792.47;;;2.01;100.00
11041;BME280;5573;49.592;8.662;2023-02-14T00:12:19;101785.19;;;1.76;100.00
11041;BME280;5573;49.592;8.662;2023-02-14T00:14:46;101786.81;;;1.77;100.00
11041;BME280;5573;49.592;8.662;2023-02-14T00:17:33;101797.66;;;1.77;100.00
11041;BME280;5573;49.592;8.662;2023-02-14T00:20:01;101797.13;;;1.70;100.00
11041;BME280;5573;49.592;8.662;2023-02-14T00:22:28;101794.41;;;1.65;100.00
11041;BME280;5573;49.592;8.662;2023-02-14T00:24:56;101796.56;;;1.58;100.00
11041;BME280;5573;49.592;8.662;2023-02-14T00:27:24;101800.13;;;1.48;100.00
11041;BME280;5573;49.592;8.662;2023-02-14T00:29:51;101794.41;;;1.45;100.00
11041;BME280;5573;49.592;8.662;2023-02-14T00:32:20;101790.63;;;1.40;100.00
11041;BME280;5573;49.592;8.662;2023-02-14T00:34:49;101789.25;;;1.33;100.00
11041;BME280;5573;49.592;8.662;2023-02-14T00:37:16;101796.88;;;1.36;100.00
11041;BME280;5573;49.592;8.662;2023-02-14T00:39:44;101800.41;;;1.31;100.00
11041;BME280;5573;49.592;8.662;2023-02-14T00:42:13;101796.03;;;1.30;100.00
11041;BME280;5573;49.592;8.662;2023-02-14T00:44:40;101794.94;;;1.26;100.00
11041;BME280;5573;49.592;8.662;2023-02-14T00:47:09;101786.81;;;1.26;100.00
11041;BME280;5573;49.592;8.662;2023-02-14T00:49:37;101779.22;;;1.18;100.00
11041;BME280;5573;49.592;8.662;2023-02-14T00:52:06;101786.03;;;1.20;100.00
11041;BME280;5573;49.592;8.662;2023-02-14T00:54:34;101780.59;;;1.31;100.00
11041;BME280;5573;49.592;8.662;2023-02-14T00:57:01;101775.97;;;1.26;100.00
11041;BME280;5573;49.592;8.662;2023-02-14T00:59:29;101779.78;;;1.25;100.00
11041;BME280;5573;49.592;8.662;2023-02-14T01:01:57;101785.72;;;1.22;100.00
11041;BME280;5573;49.592;8.662;2023-02-14T01:04:24;101776.50;;;1.18;100.00
11041;BME280;5573;49.592;8.662;2023-02-14T01:06:52;101770.00;;;1.09;100.00
11041;BME280;5573;49.592;8.662;2023-02-14T01:09:21;101770.00;;;0.98;100.00
11041;BME280;5573;49.592;8.662;2023-02-14T01:11:49;101770.81;;;1.04;100.00
11041;BME280;5573;49.592;8.662;2023-02-14T01:14:17;101771.59;;;0.94;100.00
11041;BME280;5573;49.592;8.662;2023-02-14T01:16:44;101756.94;;;0.80;100.00
11041;BME280;5573;49.592;8.662;2023-02-14T01:19:12;101780.00;;;0.88;100.00
11041;BME280;5573;49.592;8.662;2023-02-14T01:21:42;101768.91;;;0.89;100.00
11041;BME280;5573;49.592;8.662;2023-02-14T01:24:11;101781.34;;;0.90;100.00
11041;BME280;5573;49.592;8.662;2023-02-14T01:26:43;101782.41;;;0.84;100.00
11041;BME280;5573;49.592;8.662;2023-02-14T01:29:10;101781.63;;;0.84;100.00
11041;BME280;5573;49.592;8.662;2023-02-14T01:31:38;101785.13;;;0.84;100.00
11041;BME280;5573;49.592;8.662;2023-02-14T01:34:06;101772.13;;;0.81;100.00
11041;BME280;5573;49.592;8.662;2023-02-14T01:36:35;101764.53;;;0.68;100.00
11041;BME280;5573;49.592;8.662;2023-02-14T01:39:05;101769.41;;;0.71;100.00
11041;BME280;5573;49.592;8.662;2023-02-14T01:41:36;101775.06;;;0.69;100.00
11041;BME280;5573;49.592;8.662;2023-02-14T01:44:07;101768.03;;;0.68;100.00
11041;BME280;5573;49.592;8.662;2023-02-14T01:46:36;101768.25;;;0.56;100.00
11041;BME280;5573;49.592;8.662;2023-02-14T01:49:08;101777.50;;;0.60;100.00
11041;BME280;5573;49.592;8.662;2023-02-14T01:51:42;101770.16;;;0.51;100.00
11041;BME280;5573;49.592;8.662;2023-02-14T01:54:12;101774.75;;;0.50;100.00
11041;BME280;5573;49.592;8.662;2023-02-14T01:56:41;101772.88;;;0.56;100.00
11041;BME280;5573;49.592;8.662;2023-02-14T01:59:15;101776.94;;;0.53;100.00
11041;BME280;5573;49.592;8.662;2023-02-14T02:01:45;101778.03;;;0.57;100.00
11041;BME280;5573;49.592;8.662;2023-02-14T02:04:18;101788.56;;;0.54;100.00
11041;BME280;5573;49.592;8.662;2023-02-14T02:06:50;101782.59;;;0.52;100.00
11041;BME280;5573;49.592;8.662;2023-02-14T02:09:23;101786.41;;;0.51;100.00
11041;BME280;5573;49.592;8.662;2023-02-14T02:11:53;101792.09;;;0.54;100.00
11041;BME280;5573;49.592;8.662;2023-02-14T02:14:22;101791.25;;;0.44;100.00
11041;BME280;5573;49.592;8.662;2023-02-14T02:17:06;101796.34;;;0.40;100.00
11041;BME280;5573;49.592;8.662;2023-02-14T02:20:08;101801.50;;;0.36;100.00
11041;BME280;5573;49.592;8.662;2023-02-14T02:23:11;101797.19;;;0.46;100.00
11041;BME280;5573;49.592;8.662;2023-02-14T02:26:04;101788.81;;;0.47;100.00
11041;BME280;5573;49.592;8.662;2023-02-14T02:28:52;101786.91;;;0.43;100.00
11041;BME280;5573;49.592;8.662;2023-02-14T02:31:36;101776.84;;;0.28;100.00
11041;BME280;5573;49.592;8.662;2023-02-14T02:34:39;101786.56;;;0.24;100.00
11041;BME280;5573;49.592;8.662;2023-02-14T02:37:21;101784.97;;;0.28;100.00
11041;BME280;5573;49.592;8.662;2023-02-14T02:40:02;101773.28;;;0.27;100.00
11041;BME280;5573;49.592;8.662;2023-02-14T02:42:37;101770.28;;;0.13;100.00
11041;BME280;5573;49.592;8.662;2023-02-14T02:45:13;101773.50;;;0.10;100.00
11041;BME280;5573;49.592;8.662;2023-02-14T02:47:46;101778.38;;;0.13;100.00
11041;BME280;5573;49.592;8.662;2023-02-14T02:50:22;101775.13;;;0.11;100.00
11041;BME280;5573;49.592;8.662;2023-02-14T02:53:16;101777.22;;;-0.01;100.00
11041;BME280;5573;49.592;8.662;2023-02-14T02:55:51;101777.47;;;-0.08;100.00
11041;BME280;5573;49.592;8.662;2023-02-14T02:58:43;101773.94;;;-0.08;100.00
11041;BME280;5573;49.592;8.662;2023-02-14T03:01:15;101773.34;;;-0.21;100.00
11041;BME280;5573;49.592;8.662;2023-02-14T03:03:47;101768.97;;;-0.22;100.00
11041;BME280;5573;49.592;8.662;2023-02-14T03:06:29;101764.41;;;-0.21;100.00
11041;BME280;5573;49.592;8.662;2023-02-14T03:09:09;101753.22;;;-0.35;100.00
11041;BME280;5573;49.592;8.662;2023-02-14T03:11:39;101760.88;;;-0.22;100.00
11041;BME280;5573;49.592;8.662;2023-02-14T03:14:18;101766.28;;;-0.22;100.00
11041;BME280;5573;49.592;8.662;2023-02-14T03:16:58;101768.25;;;-0.12;100.00
11041;BME280;5573;49.592;8.662;2023-02-14T03:19:46;101773.09;;;-0.14;100.00
11041;BME280;5573;49.592;8.662;2023-02-14T03:22:44;101768.72;;;-0.20;100.00
11041;BME280;5573;49.592;8.662;2023-02-14T03:25:23;101785.22;;;-0.22;100.00
11041;BME280;5573;49.592;8.662;2023-02-14T03:28:01;101783.84;;;-0.24;100.00
11041;BME280;5573;49.592;8.662;2023-02-14T03:30:35;101777.31;;;-0.28;100.00
11041;BME280;5573;49.592;8.662;2023-02-14T03:33:15;101782.97;;;-0.35;100.00
11041;BME280;5573;49.592;8.662;2023-02-14T03:35:47;101784.06;;;-0.31;100.00
11041;BME280;5573;49.592;8.662;2023-02-14T03:38:23;101788.13;;;-0.33;100.00
11041;BME280;5573;49.592;8.662;2023-02-14T03:40:56;101786.78;;;-0.31;100.00
11041;BME280;5573;49.592;8.662;2023-02-14T03:43:32;101795.69;;;-0.30;100.00
11041;BME280;5573;49.592;8.662;2023-02-14T03:46:04;101753.69;;;-0.48;100.00
11041;BME280;5573;49.592;8.662;2023-02-14T03:48:34;101781.59;;;-0.37;100.00
11041;BME280;5573;49.592;8.662;2023-02-14T03:51:03;101783.19;;;-0.42;100.00
11041;BME280;5573;49.592;8.662;2023-02-14T03:53:35;101783.19;;;-0.42;100.00
11041;BME280;5573;49.592;8.662;2023-02-14T03:56:11;101779.69;;;-0.42;100.00
11041;BME280;5573;49.592;8.662;2023-02-14T03:58:42;101779.38;;;-0.46;100.00
11041;BME280;5573;49.592;8.662;2023-02-14T04:01:15;101785.28;;;-0.49;100.00
11041;BME280;5573;49.592;8.662;2023-02-14T04:03:46;101772.84;;;-0.50;100.00
11041;BME280;5573;49.592;8.662;2023-02-14T04:06:16;101778.50;;;-0.56;100.00
11041;BME280;5573;49.592;8.662;2023-02-14T04:08:44;101780.31;;;-0.62;100.00
11041;BME280;5573;49.592;8.662;2023-02-14T04:11:13;101785.94;;;-0.69;100.00
11041;BME280;5573;49.592;8.662;2023-02-14T04:13:41;101786.19;;;-0.70;100.00
11041;BME280;5573;49.592;8.662;2023-02-14T04:16:09;101783.75;;;-0.72;100.00
11041;BME280;5573;49.592;8.662;2023-02-14T04:18:36;101786.75;;;-0.68;100.00
11041;BME280;5573;49.592;8.662;2023-02-14T04:21:24;101783.25;;;-0.69;100.00
11041;BME280;5573;49.592;8.662;2023-02-14T04:23:52;101784.91;;;-0.63;100.00
11041;BME280;5573;49.592;8.662;2023-02-14T04:26:21;101788.13;;;-0.66;100.00
11041;BME280;5573;49.592;8.662;2023-02-14T04:28:48;101785.97;;;-0.64;100.00
11041;BME280;5573;49.592;8.662;2023-02-14T04:31:16;101796.22;;;-0.66;100.00
11041;BME280;5573;49.592;8.662;2023-02-14T04:33:44;101794.63;;;-0.67;100.00
11041;BME280;5573;49.592;8.662;2023-02-14T04:36:13;101794.63;;;-0.67;100.00
11041;BME280;5573;49.592;8.662;2023-02-14T04:38:41;101786.44;;;-0.72;100.00
11041;BME280;5573;49.592;8.662;2023-02-14T04:41:09;101794.63;;;-0.67;100.00
11041;BME280;5573;49.592;8.662;2023-02-14T04:43:39;101791.09;;;-0.67;100.00
11041;BME280;5573;49.592;8.662;2023-02-14T04:46:06;101784.03;;;-0.73;100.00
11041;BME280;5573;49.592;8.662;2023-02-14T04:48:34;101794.56;;;-0.72;100.00
11041;BME280;5573;49.592;8.662;2023-02-14T04:51:02;101788.41;;;-0.67;100.00
11041;BME280;5573;49.592;8.662;2023-02-14T04:53:30;101787.53;;;-0.73;100.00
11041;BME280;5573;49.592;8.662;2023-02-14T04:55:58;101795.84;;;-0.79;100.00
11041;BME280;5573;49.592;8.662;2023-02-14T04:58:25;101789.13;;;-0.77;100.00
11041;BME280;5573;49.592;8.662;2023-02-14T05:00:54;101786.41;;;-0.77;100.00
11041;BME280;5573;49.592;8.662;2023-02-14T05:03:22;101795.00;;;-0.85;100.00
11041;BME280;5573;49.592;8.662;2023-02-14T05:05:50;101783.38;;;-0.86;100.00
11041;BME280;5573;49.592;8.662;2023-02-14T05:08:18;101790.22;;;-0.78;100.00
11041;BME280;5573;49.592;8.662;2023-02-14T05:10:45;101782.94;;;-0.72;100.00
11041;BME280;5573;49.592;8.662;2023-02-14T05:13:13;101792.47;;;-0.65;100.00
11041;BME280;5573;49.592;8.662;2023-02-14T05:15:41;101790.34;;;-0.57;100.00
11041;BME280;5573;49.592;8.662;2023-02-14T05:18:11;101783.91;;;-0.56;100.00
11041;BME280;5573;49.592;8.662;2023-02-14T05:20:39;101792.66;;;-0.44;100.00
11041;BME280;5573;49.592;8.662;2023-02-14T05:23:07;101780.78;;;-0.38;100.00
11041;BME280;5573;49.592;8.662;2023-02-14T05:25:39;101780.84;;;-0.28;100.00
11041;BME280;5573;49.592;8.662;2023-02-14T05:28:06;101780.28;;;-0.30;100.00
11041;BME280;5573;49.592;8.662;2023-02-14T05:30:35;101785.38;;;-0.38;100.00
11041;BME280;5573;49.592;8.662;2023-02-14T05:33:03;101781.84;;;-0.39;100.00
11041;BME280;5573;49.592;8.662;2023-02-14T05:35:32;101768.81;;;-0.47;100.00
11041;BME280;5573;49.592;8.662;2023-02-14T05:38:00;101783.44;;;-0.43;100.00
11041;BME280;5573;49.592;8.662;2023-02-14T05:40:28;101776.97;;;-0.42;100.00
11041;BME280;5573;49.592;8.662;2023-02-14T05:42:55;101775.66;;;-0.34;100.00
11041;BME280;5573;49.592;8.662;2023-02-14T05:45:24;101779.16;;;-0.34;100.00
11041;BME280;5573;49.592;8.662;2023-02-14T05:47:52;101778.97;;;-0.27;100.00
11041;BME280;5573;49.592;8.662;2023-02-14T05:50:20;101783.03;;;-0.25;100.00
11041;BME280;5573;49.592;8.662;2023-02-14T05:52:54;101782.63;;;-0.06;100.00
11041;BME280;5573;49.592;8.662;2023-02-14T05:55:22;101788.34;;;0.03;100.00
11041;BME280;5573;49.592;8.662;2023-02-14T05:57:50;101794.56;;;-0.02;100.00
11041;BME280;5573;49.592;8.662;2023-02-14T06:00:18;101795.13;;;0.05;100.00
11041;BME280;5573;49.592;8.662;2023-02-14T06:02:46;101790.84;;;0.14;100.00
11041;BME280;5573;49.592;8.662;2023-02-14T06:05:14;101789.47;;;0.07;100.00
11041;BME280;5573;49.592;8.662;2023-02-14T06:07:43;101791.38;;;0.16;100.00
11041;BME280;5573;49.592;8.662;2023-02-14T06:10:18;101751.44;;;-0.19;100.00
11041;BME280;5573;49.592;8.662;2023-02-14T06:12:47;101793.78;;;0.08;100.00
11041;BME280;5573;49.592;8.662;2023-02-14T06:15:16;101794.50;;;-0.07;100.00
11041;BME280;5573;49.592;8.662;2023-02-14T06:17:44;101789.63;;;-0.10;100.00
11041;BME280;5573;49.592;8.662;2023-02-14T06:20:12;101795.03;;;-0.10;100.00
11041;BME280;5573;49.592;8.662;2023-02-14T06:22:40;101790.22;;;0.02;100.00
11041;BME280;5573;49.592;8.662;2023-02-14T06:25:11;101784.78;;;-0.03;100.00
11041;BME280;5573;49.592;8.662;2023-02-14T06:27:40;101789.41;;;0.02;100.00
11041;BME280;5573;49.592;8.662;2023-02-14T06:30:09;101772.91;;;-0.02;100.00
11041;BME280;5573;49.592;8.662;2023-02-14T06:32:38;101796.25;;;0.14;100.00
11041;BME280;5573;49.592;8.662;2023-02-14T06:35:06;101794.94;;;0.22;100.00
11041;BME280;5573;49.592;8.662;2023-02-14T06:37:34;101794.94;;;0.27;100.00
11041;BME280;5573;49.592;8.662;2023-02-14T06:40:05;101799.00;;;0.25;100.00
11041;BME280;5573;49.592;8.662;2023-02-14T06:42:33;101788.97;;;0.25;100.00
11041;BME280;5573;49.592;8.662;2023-02-14T06:45:03;101805.03;;;0.42;100.00
11041;BME280;5573;49.592;8.662;2023-02-14T06:47:30;101810.44;;;0.42;100.00
11041;BME280;5573;49.592;8.662;2023-02-14T06:50:00;101806.69;;;0.43;100.00
11041;BME280;5573;49.592;8.662;2023-02-14T06:52:30;101812.91;;;0.44;100.00
11041;BME280;5573;49.592;8.662;2023-02-14T06:54:58;101811.22;;;0.32;100.00
11041;BME280;5573;49.592;8.662;2023-02-14T06:57:26;101818.06;;;0.45;100.00
11041;BME280;5573;49.592;8.662;2023-02-14T06:59:54;101821.56;;;0.46;100.00
11041;BME280;5573;49.592;8.662;2023-02-14T07:02:24;101832.44;;;0.51;100.00
11041;BME280;5573;49.592;8.662;2023-02-14T07:04:51;101832.66;;;0.44;100.00
11041;BME280;5573;49.592;8.662;2023-02-14T07:07:19;101831.34;;;0.52;100.00
11041;BME280;5573;49.592;8.662;2023-02-14T07:09:47;101835.47;;;0.65;100.00
11041;BME280;5573;49.592;8.662;2023-02-14T07:12:15;101839.28;;;0.69;100.00
11041;BME280;5573;49.592;8.662;2023-02-14T07:14:43;101840.41;;;0.88;100.00
11041;BME280;5573;49.592;8.662;2023-02-14T07:17:11;101836.88;;;0.77;100.00
11041;BME280;5573;49.592;8.662;2023-02-14T07:19:40;101839.31;;;0.74;100.00
11041;BME280;5573;49.592;8.662;2023-02-14T07:22:08;101841.50;;;0.92;100.00
11041;BME280;5573;49.592;8.662;2023-02-14T07:24:35;101839.63;;;0.98;100.00
11041;BME280;5573;49.592;8.662;2023-02-14T07:27:03;101841.53;;;0.97;100.00
11041;BME280;5573;49.592;8.662;2023-02-14T07:29:31;101847.19;;;0.86;100.00
11041;BME280;5573;49.592;8.662;2023-02-14T07:31:59;101838.53;;;0.99;100.00
11041;BME280;5573;49.592;8.662;2023-02-14T07:34:27;101829.88;;;0.97;100.00
11041;BME280;5573;49.592;8.662;2023-02-14T07:36:56;101832.63;;;1.12;100.00
11041;BME280;5573;49.592;8.662;2023-02-14T07:39:24;101838.88;;;1.23;100.00
11041;BME280;5573;49.592;8.662;2023-02-14T07:41:52;101842.13;;;1.25;100.00
11041;BME280;5573;49.592;8.662;2023-02-14T07:44:20;101834.53;;;1.22;100.00
11041;BME280;5573;49.592;8.662;2023-02-14T07:46:47;101837.53;;;1.20;100.00
11041;BME280;5573;49.592;8.662;2023-02-14T07:49:15;101826.13;;;1.18;100.00
11041;BME280;5573;49.592;8.662;2023-02-14T07:51:43;101827.50;;;1.21;100.00
11041;BME280;5573;49.592;8.662;2023-02-14T07:54:12;101828.03;;;1.28;100.00
11041;BME280;5573;49.592;8.662;2023-02-14T07:56:40;101822.63;;;1.23;100.00
11041;BME280;5573;49.592;8.662;2023-02-14T07:59:08;101823.97;;;1.26;100.00
11041;BME280;5573;49.592;8.662;2023-02-14T08:01:36;101820.44;;;1.20;100.00
11041;BME280;5573;49.592;8.662;2023-02-14T08:04:04;101822.63;;;1.33;100.00
11041;BME280;5573;49.592;8.662;2023-02-14T08:06:32;101823.72;;;1.48;100.00
11041;BME280;5573;49.592;8.662;2023-02-14T08:09:00;101824.25;;;1.60;100.00
11041;BME280;5573;49.592;8.662;2023-02-14T08:11:29;101818.84;;;1.75;100.00
11041;BME280;5573;49.592;8.662;2023-02-14T08:14:20;101825.31;;;1.90;100.00
11041;BME280;5573;49.592;8.662;2023-02-14T08:16:47;101819.59;;;2.01;100.00
11041;BME280;5573;49.592;8.662;2023-02-14T08:19:15;101824.78;;;1.93;100.00
11041;BME280;5573;49.592;8.662;2023-02-14T08:21:43;101830.97;;;2.09;100.00
11041;BME280;5573;49.592;8.662;2023-02-14T08:24:11;101823.63;;;2.24;100.00
11041;BME280;5573;49.592;8.662;2023-02-14T08:26:40;101827.38;;;2.34;100.00
11041;BME280;5573;49.592;8.662;2023-02-14T08:29:08;101829.44;;;2.68;100.00
11041;BME280;5573;49.592;8.662;2023-02-14T08:31:36;101825.19;;;2.46;100.00
11041;BME280;5573;49.592;8.662;2023-02-14T08:34:04;101829.22;;;2.49;100.00
11041;BME280;5573;49.592;8.662;2023-02-14T08:36:32;101822.44;;;2.51;100.00
11041;BME280;5573;49.592;8.662;2023-02-14T08:39:02;101833.31;;;2.51;100.00
11041;BME280;5573;49.592;8.662;2023-02-14T08:41:30;101826.25;;;2.50;100.00
11041;BME280;5573;49.592;8.662;2023-02-14T08:43:59;101791.47;;;2.52;100.00
11041;BME280;5573;49.592;8.662;2023-02-14T08:46:27;101837.63;;;2.62;100.00
11041;BME280;5573;49.592;8.662;2023-02-14T08:48:55;101827.66;;;2.37;100.00
11041;BME280;5573;49.592;8.662;2023-02-14T08:51:23;101828.16;;;2.50;100.00
11041;BME280;5573;49.592;8.662;2023-02-14T08:53:52;101821.44;;;2.27;100.00
11041;BME280;5573;49.592;8.662;2023-02-14T08:56:21;101818.22;;;2.04;100.00
11041;BME280;5573;49.592;8.662;2023-02-14T08:58:51;101829.66;;;2.01;100.00
11041;BME280;5573;49.592;8.662;2023-02-14T09:01:21;101826.03;;;2.36;100.00
11041;BME280;5573;49.592;8.662;2023-02-14T09:03:49;101820.59;;;2.36;100.00
11041;BME280;5573;49.592;8.662;2023-02-14T09:06:17;101827.06;;;2.51;100.00
11041;BME280;5573;49.592;8.662;2023-02-14T09:08:45;101829.69;;;2.71;100.00
11041;BME280;5573;49.592;8.662;2023-02-14T09:11:15;101829.38;;;2.83;100.00
11041;BME280;5573;49.592;8.662;2023-02-14T09:13:45;101823.44;;;2.71;100.00
11041;BME280;5573;49.592;8.662;2023-02-14T09:16:15;101819.16;;;2.59;100.00
11041;BME280;5573;49.592;8.662;2023-02-14T09:18:46;101823.19;;;2.72;100.00
11041;BME280;5573;49.592;8.662;2023-02-14T09:21:16;101813.59;;;2.80;100.00
11041;BME280;5573;49.592;8.662;2023-02-14T09:23:44;101825.53;;;2.89;100.00
11041;BME280;5573;49.592;8.662;2023-02-14T09:26:13;101820.06;;;2.94;100.00
11041;BME280;5573;49.592;8.662;2023-02-14T09:28:42;101821.88;;;3.09;100.00
11041;BME280;5573;49.592;8.662;2023-02-14T09:31:12;101805.34;;;3.00;100.00
11041;BME280;5573;49.592;8.662;2023-02-14T09:33:41;101818.38;;;3.03;100.00
11041;BME280;5573;49.592;8.662;2023-02-14T09:36:11;101813.13;;;3.52;100.00
11041;BME280;5573;49.592;8.662;2023-02-14T09:38:56;101804.31;;;3.31;100.00
11041;BME280;5573;49.592;8.662;2023-02-14T09:41:47;101805.16;;;3.26;100.00
11041;BME280;5573;49.592;8.662;2023-02-14T09:44:26;101787.19;;;3.30;100.00
11041;BME280;5573;49.592;8.662;2023-02-14T09:47:01;101808.19;;;3.59;100.00
11041;BME280;5573;49.592;8.662;2023-02-14T09:49:35;101795.66;;;3.87;100.00
11041;BME280;5573;49.592;8.662;2023-02-14T09:52:12;101795.03;;;3.66;100.00
11041;BME280;5573;49.592;8.662;2023-02-14T09:54:45;101810.06;;;3.93;100.00
11041;BME280;5573;49.592;8.662;2023-02-14T09:57:21;101809.63;;;3.80;100.00
11041;BME280;5573;49.592;8.662;2023-02-14T09:59:53;101803.22;;;3.66;100.00
11041;BME280;5573;49.592;8.662;2023-02-14T10:02:35;101808.22;;;3.83;100.00
11041;BME280;5573;49.592;8.662;2023-02-14T10:05:10;101807.88;;;3.90;100.00
11041;BME280;5573;49.592;8.662;2023-02-14T10:07:52;101790.28;;;4.06;100.00
11041;BME280;5573;49.592;8.662;2023-02-14T10:10:25;101808.72;;;4.14;100.00
11041;BME280;5573;49.592;8.662;2023-02-14T10:12:58;101799.66;;;4.24;100.00
11041;BME280;5573;49.592;8.662;2023-02-14T10:15:30;101801.38;;;4.39;100.00
11041;BME280;5573;49.592;8.662;2023-02-14T10:18:02;101807.03;;;4.42;100.00
11041;BME280;5573;49.592;8.662;2023-02-14T10:20:35;101810.59;;;4.19;100.00
11041;BME280;5573;49.592;8.662;2023-02-14T10:23:26;101803.34;;;4.09;100.00
11041;BME280;5573;49.592;8.662;2023-02-14T10:25:59;101798.56;;;3.96;100.00
11041;BME280;5573;49.592;8.662;2023-02-14T10:28:32;101742.56;;;3.60;100.00
11041;BME280;5573;49.592;8.662;2023-02-14T10:31:14;101799.63;;;4.00;100.00
11041;BME280;5573;49.592;8.662;2023-02-14T10:34:13;101799.69;;;3.95;100.00
11041;BME280;5573;49.592;8.662;2023-02-14T10:36:55;101785.06;;;3.85;100.00
11041;BME280;5573;49.592;8.662;2023-02-14T10:39:47;101764.69;;;4.07;100.00
11041;BME280;5573;49.592;8.662;2023-02-14T10:42:24;101797.84;;;4.14;100.00
11041;BME280;5573;49.592;8.662;2023-02-14T10:45:07;101796.78;;;4.10;100.00
11041;BME280;5573;49.592;8.662;2023-02-14T10:47:44;101787.63;;;4.25;100.00
11041;BME280;5573;49.592;8.662;2023-02-14T10:50:18;101773.50;;;3.99;100.00
11041;BME280;5573;49.592;8.662;2023-02-14T10:52:53;101778.31;;;4.07;100.00
11041;BME280;5573;49.592;8.662;2023-02-14T10:55:35;101777.28;;;4.03;100.00
11041;BME280;5573;49.592;8.662;2023-02-14T10:58:06;101775.41;;;3.98;100.00
11041;BME280;5573;49.592;8.662;2023-02-14T11:00:38;101765.16;;;4.14;100.00
11041;BME280;5573;49.592;8.662;2023-02-14T11:03:08;101764.38;;;4.08;100.00
11041;BME280;5573;49.592;8.662;2023-02-14T11:05:38;101759.75;;;4.33;100.00
11041;BME280;5573;49.592;8.662;2023-02-14T11:08:23;101762.84;;;4.26;100.00
11041;BME280;5573;49.592;8.662;2023-02-14T11:10:54;101765.88;;;4.44;100.00
11041;BME280;5573;49.592;8.662;2023-02-14T11:13:29;101763.81;;;4.36;100.00
11041;BME280;5573;49.592;8.662;2023-02-14T11:15:59;101758.06;;;4.37;100.00
11041;BME280;5573;49.592;8.662;2023-02-14T11:18:29;101759.69;;;4.38;100.00
11041;BME280;5573;49.592;8.662;2023-02-14T11:21:00;101754.47;;;4.61;100.00
11041;BME280;5573;49.592;8.662;2023-02-14T11:23:31;101756.34;;;4.22;100.00
11041;BME280;5573;49.592;8.662;2023-02-14T11:26:23;101742.81;;;4.36;100.00
11041;BME280;5573;49.592;8.662;2023-02-14T11:28:55;101747.53;;;4.31;100.00
11041;BME280;5573;49.592;8.662;2023-02-14T11:31:28;101743.31;;;4.38;100.00
11041;BME280;5573;49.592;8.662;2023-02-14T11:33:57;101743.16;;;4.54;100.00
11041;BME280;5573;49.592;8.662;2023-02-14T11:36:25;101741.34;;;4.44;100.00
11041;BME280;5573;49.592;8.662;2023-02-14T11:38:55;101719.25;;;4.26;100.00
11041;BME280;5573;49.592;8.662;2023-02-14T11:41:26;101733.13;;;4.49;100.00
11041;BME280;5573;49.592;8.662;2023-02-14T11:44:10;101723.63;;;4.65;100.00
11041;BME280;5573;49.592;8.662;2023-02-14T11:46:40;101704.34;;;4.62;100.00
11041;BME280;5573;49.592;8.662;2023-02-14T11:49:24;101723.75;;;4.55;100.00
11041;BME280;5573;49.592;8.662;2023-02-14T11:51:54;101727.22;;;4.80;100.00
11041;BME280;5573;49.592;8.662;2023-02-14T11:54:28;101716.41;;;4.75;100.00
11041;BME280;5573;49.592;8.662;2023-02-14T11:57:03;101710.97;;;4.56;100.00
11041;BME280;5573;49.592;8.662;2023-02-14T11:59:36;101708.09;;;4.66;100.00
11041;BME280;5573;49.592;8.662;2023-02-14T12:02:17;101705.09;;;4.24;100.00
11041;BME280;5573;49.592;8.662;2023-02-14T12:04:48;101697.31;;;4.37;100.00
11041;BME280;5573;49.592;8.662;2023-02-14T12:07:21;101700.19;;;4.45;100.00
11041;BME280;5573;49.592;8.662;2023-02-14T12:10:14;101696.72;;;4.59;100.00
11041;BME280;5573;49.592;8.662;2023-02-14T12:12:54;101698.03;;;4.80;100.00
11041;BME280;5573;49.592;8.662;2023-02-14T12:18:21;101693.41;;;4.81;100.00
11041;BME280;5573;49.592;8.662;2023-02-14T12:20:55;101696.19;;;4.76;100.00
11041;BME280;5573;49.592;8.662;2023-02-14T12:23:31;101688.13;;;4.71;100.00
11041;BME280;5573;49.592;8.662;2023-02-14T12:26:03;101678.44;;;4.59;100.00
11041;BME280;5573;49.592;8.662;2023-02-14T12:28:48;101672.03;;;4.69;100.00
11041;BME280;5573;49.592;8.662;2023-02-14T12:31:17;101669.94;;;4.99;100.00
11041;BME280;5573;49.592;8.662;2023-02-14T12:33:46;101671.75;;;5.03;100.00
11041;BME280;5573;49.592;8.662;2023-02-14T12:36:28;101657.53;;;4.74;100.00
11041;BME280;5573;49.592;8.662;2023-02-14T12:39:04;101665.53;;;4.84;100.00
11041;BME280;5573;49.592;8.662;2023-02-14T12:41:43;101663.06;;;4.68;100.00
11041;BME280;5573;49.592;8.662;2023-02-14T12:44:21;101664.16;;;4.67;100.00
11041;BME280;5573;49.592;8.662;2023-02-14T12:47:13;101660.84;;;5.03;100.00
11041;BME280;5573;49.592;8.662;2023-02-14T12:52:49;101657.88;;;4.86;100.00
11041;BME280;5573;49.592;8.662;2023-02-14T12:55:43;101657.88;;;4.86;100.00
11041;BME280;5573;49.592;8.662;2023-02-14T12:58:24;101659.03;;;4.47;100.00
11041;BME280;5573;49.592;8.662;2023-02-14T13:01:02;101656.41;;;4.94;100.00
11041;BME280;5573;49.592;8.662;2023-02-14T13:03:59;101656.19;;;4.90;100.00
11041;BME280;5573;49.592;8.662;2023-02-14T13:06:30;101647.06;;;4.81;100.00
11041;BME280;5573;49.592;8.662;2023-02-14T13:09:13;101648.50;;;4.92;100.00
11041;BME280;5573;49.592;8.662;2023-02-14T13:11:53;101644.91;;;4.78;100.00
11041;BME280;5573;49.592;8.662;2023-02-14T13:14:37;101637.03;;;4.76;100.00
11041;BME280;5573;49.592;8.662;2023-02-14T13:17:16;101635.13;;;4.77;100.00
11041;BME280;5573;49.592;8.662;2023-02-14T13:19:52;101637.41;;;4.69;100.00
11041;BME280;5573;49.592;8.662;2023-02-14T13:22:26;101630.13;;;4.65;100.00
11041;BME280;5573;49.592;8.662;2023-02-14T13:24:58;101636.59;;;4.69;100.00
11041;BME280;5573;49.592;8.662;2023-02-14T13:27:31;101632.28;;;4.68;100.00
11041;BME280;5573;49.592;8.662;2023-02-14T13:30:02;101624.38;;;4.66;100.00
11041;BME280;5573;49.592;8.662;2023-02-14T13:32:36;101626.16;;;4.57;100.00